createdAt,value
2023-03-02T00:02:02.288Z,21.40
2023-03-02T00:04:40.024Z,20.00
2023-03-02T00:07:11.488Z,22.10
2023-03-02T00:09:40.124Z,21.10
2023-03-02T00:12:09.195Z,21.10
2023-03-02T00:14:39.047Z,21.50
2023-03-02T00:17:10.803Z,20.90
2023-03-02T00:19:39.248Z,23.00
2023-03-02T00:22:09.474Z,22.60
2023-03-02T00:24:38.300Z,22.40
2023-03-02T00:27:06.528Z,23.50
2023-03-02T00:29:35.000Z,24.70
2023-03-02T00:32:04.175Z,24.60
2023-03-02T00:34:32.576Z,25.40
2023-03-02T00:37:00.853Z,28.10
2023-03-02T00:39:29.001Z,27.00
2023-03-02T00:41:57.311Z,28.90
2023-03-02T00:44:25.479Z,25.60
2023-03-02T00:46:53.644Z,25.30
2023-03-02T00:49:22.038Z,24.10
2023-03-02T00:51:50.300Z,23.80
2023-03-02T00:54:18.488Z,23.20
2023-03-02T00:56:46.649Z,23.90
2023-03-02T00:59:27.734Z,25.10
2023-03-02T01:02:11.004Z,22.90
2023-03-02T01:04:41.654Z,23.10
2023-03-02T01:07:26.307Z,21.70
2023-03-02T01:09:54.527Z,21.10
2023-03-02T01:12:22.803Z,21.50
2023-03-02T01:14:51.180Z,20.70
2023-03-02T01:17:22.270Z,19.80
2023-03-02T01:19:50.420Z,18.80
2023-03-02T01:22:19.369Z,20.80
2023-03-02T01:24:47.496Z,19.00
2023-03-02T01:27:15.787Z,19.40
2023-03-02T01:29:43.906Z,20.50
2023-03-02T01:32:12.075Z,19.80
2023-03-02T01:34:40.737Z,20.50
2023-03-02T01:37:08.892Z,20.20
2023-03-02T01:39:37.029Z,19.90
2023-03-02T01:42:05.284Z,19.60
2023-03-02T01:44:41.718Z,18.90
2023-03-02T01:47:15.180Z,18.00
2023-03-02T01:49:57.641Z,20.30
2023-03-02T01:52:29.293Z,19.10
2023-03-02T01:55:01.927Z,18.40
2023-03-02T01:57:35.033Z,19.70
2023-03-02T02:02:42.145Z,17.60
2023-03-02T02:05:14.189Z,18.20
2023-03-02T02:07:42.931Z,19.00
2023-03-02T02:10:12.456Z,19.00
2023-03-02T02:12:40.703Z,18.10
2023-03-02T02:15:09.366Z,19.50
2023-03-02T02:17:37.750Z,18.00
2023-03-02T02:20:20.931Z,17.90
2023-03-02T02:22:54.847Z,17.90
2023-03-02T02:25:55.620Z,18.30
2023-03-02T02:28:45.264Z,17.60
2023-03-02T02:31:22.668Z,18.40
2023-03-02T02:33:56.387Z,18.40
2023-03-02T02:36:34.009Z,19.10
2023-03-02T02:39:08.721Z,20.00
2023-03-02T02:41:39.962Z,19.80
2023-03-02T02:44:20.258Z,17.50
2023-03-02T02:46:48.436Z,18.20
2023-03-02T02:49:30.814Z,18.70
2023-03-02T02:51:59.708Z,22.30
2023-03-02T02:54:30.314Z,21.60
2023-03-02T02:57:01.810Z,21.60
2023-03-02T02:59:35.553Z,23.00
2023-03-02T03:02:04.205Z,20.00
2023-03-02T03:04:33.557Z,21.10
2023-03-02T03:07:06.359Z,19.90
2023-03-02T03:09:34.926Z,19.80
2023-03-02T03:12:11.234Z,20.00
2023-03-02T03:14:41.289Z,18.40
2023-03-02T03:17:12.997Z,18.50
2023-03-02T03:20:09.551Z,18.80
2023-03-02T03:22:39.813Z,19.80
2023-03-02T03:25:09.838Z,18.60
2023-03-02T03:27:38.035Z,19.80
2023-03-02T03:30:07.851Z,19.00
2023-03-02T03:32:36.936Z,17.40
2023-03-02T03:35:08.893Z,19.00
2023-03-02T03:37:40.011Z,18.30
2023-03-02T03:40:10.617Z,19.10
2023-03-02T03:42:40.665Z,18.30
2023-03-02T03:45:09.827Z,18.50
2023-03-02T03:47:38.880Z,18.00
2023-03-02T03:50:08.592Z,18.20
2023-03-02T03:52:37.453Z,18.90
2023-03-02T03:55:12.793Z,18.30
2023-03-02T03:57:42.157Z,19.10
2023-03-02T04:00:15.095Z,19.50
2023-03-02T04:02:47.247Z,19.80
2023-03-02T04:05:17.208Z,19.30
2023-03-02T04:07:46.161Z,19.70
2023-03-02T04:10:14.507Z,20.50
2023-03-02T04:12:44.126Z,19.90
2023-03-02T04:15:16.259Z,20.20
2023-03-02T04:17:46.146Z,19.10
2023-03-02T04:20:17.846Z,20.70
2023-03-02T04:22:51.861Z,19.40
2023-03-02T04:25:23.316Z,20.50
2023-03-02T04:27:54.418Z,18.20
2023-03-02T04:30:26.470Z,20.80
2023-03-02T04:32:57.548Z,21.50
2023-03-02T04:35:27.419Z,20.60
2023-03-02T04:37:56.210Z,20.00
2023-03-02T04:40:25.227Z,19.60
2023-03-02T04:42:53.489Z,19.00
2023-03-02T04:45:21.772Z,20.30
2023-03-02T04:47:49.928Z,20.60
2023-03-02T04:50:18.089Z,22.10
2023-03-02T04:52:46.189Z,21.80
2023-03-02T04:55:23.659Z,23.90
2023-03-02T04:57:51.761Z,34.90
2023-03-02T05:00:21.261Z,22.70
2023-03-02T05:02:49.834Z,21.40
2023-03-02T05:05:24.438Z,24.70
2023-03-02T05:07:53.153Z,22.40
2023-03-02T05:10:24.316Z,20.60
2023-03-02T05:13:02.784Z,21.50
2023-03-02T05:15:39.894Z,21.40
2023-03-02T05:18:11.138Z,20.60
2023-03-02T05:20:39.813Z,22.40
2023-03-02T05:23:09.940Z,21.60
2023-03-02T05:25:39.143Z,22.90
2023-03-02T05:28:07.406Z,24.80
2023-03-02T05:30:37.997Z,23.80
2023-03-02T05:33:06.830Z,23.50
2023-03-02T05:35:35.510Z,31.20
2023-03-02T05:38:04.620Z,23.90
2023-03-02T05:40:33.292Z,22.30
2023-03-02T05:43:02.294Z,24.90
2023-03-02T05:45:36.929Z,22.90
2023-03-02T05:48:06.407Z,21.20
2023-03-02T05:50:34.664Z,20.50
2023-03-02T05:53:03.073Z,21.30
2023-03-02T05:55:31.506Z,22.70
2023-03-02T05:57:59.647Z,23.10
2023-03-02T06:00:28.043Z,21.90
2023-03-02T06:02:56.928Z,21.00
2023-03-02T06:05:25.263Z,21.60
2023-03-02T06:07:54.008Z,24.30
2023-03-02T06:10:22.230Z,21.00
2023-03-02T06:12:50.750Z,18.50
2023-03-02T06:15:18.992Z,19.30
2023-03-02T06:17:47.577Z,21.60
2023-03-02T06:20:16.788Z,21.20
2023-03-02T06:22:47.037Z,20.60
2023-03-02T06:25:18.558Z,20.50
2023-03-02T06:27:47.644Z,19.90
2023-03-02T06:30:18.038Z,21.60
2023-03-02T06:32:46.313Z,23.40
2023-03-02T06:35:15.464Z,20.80
2023-03-02T06:37:44.436Z,20.30
2023-03-02T06:40:14.158Z,16.60
2023-03-02T06:42:43.187Z,14.70
2023-03-02T06:45:11.723Z,15.70
2023-03-02T06:47:39.942Z,14.70
2023-03-02T06:50:09.520Z,17.60
2023-03-02T06:52:37.616Z,17.00
2023-03-02T06:55:06.905Z,15.10
2023-03-02T06:57:35.174Z,15.30
2023-03-02T07:00:10.238Z,15.60
2023-03-02T07:02:38.552Z,16.80
2023-03-02T07:05:07.718Z,17.30
2023-03-02T07:07:36.269Z,16.10
2023-03-02T07:10:06.848Z,14.50
2023-03-02T07:12:35.515Z,14.90
2023-03-02T07:15:04.711Z,14.20
2023-03-02T07:17:34.139Z,15.50
2023-03-02T07:20:04.116Z,14.00
2023-03-02T07:22:33.044Z,13.60
2023-03-02T07:25:01.195Z,13.40
2023-03-02T07:27:29.557Z,14.80
2023-03-02T07:29:57.690Z,13.70
2023-03-02T07:32:26.184Z,15.30
2023-03-02T07:34:54.520Z,14.00
2023-03-02T07:37:22.921Z,14.40
2023-03-02T07:39:51.118Z,14.60
2023-03-02T07:42:19.334Z,14.60
2023-03-02T07:44:49.263Z,15.10
2023-03-02T07:47:17.392Z,14.60
2023-03-02T07:49:45.806Z,16.00
2023-03-02T07:52:14.027Z,14.60
2023-03-02T07:54:42.490Z,13.50
2023-03-02T07:57:11.069Z,12.70
2023-03-02T07:59:39.126Z,13.70
2023-03-02T08:02:07.457Z,15.50
2023-03-02T08:04:36.095Z,15.70
2023-03-02T08:07:04.264Z,15.00
2023-03-02T08:09:32.859Z,14.50
2023-03-02T08:12:00.971Z,12.90
2023-03-02T08:14:29.171Z,14.20
2023-03-02T08:16:57.464Z,15.00
2023-03-02T08:19:26.533Z,13.70
2023-03-02T08:21:54.666Z,13.20
2023-03-02T08:24:22.826Z,13.50
2023-03-02T08:26:51.000Z,14.60
2023-03-02T08:29:19.478Z,13.40
2023-03-02T08:31:47.649Z,13.80
2023-03-02T08:34:15.803Z,14.40
2023-03-02T08:36:44.780Z,13.10
2023-03-02T08:39:13.602Z,13.90
2023-03-02T08:41:41.794Z,13.40
2023-03-02T08:44:09.934Z,11.60
2023-03-02T08:46:38.218Z,13.20
2023-03-02T08:49:06.378Z,14.00
2023-03-02T08:51:35.180Z,12.30
2023-03-02T08:54:03.584Z,12.30
2023-03-02T08:56:35.548Z,12.40
2023-03-02T08:59:11.119Z,14.60
2023-03-02T09:01:40.492Z,13.40
2023-03-02T09:04:11.450Z,13.00
2023-03-02T09:06:43.210Z,13.60
2023-03-02T09:09:13.484Z,10.80
2023-03-02T09:11:42.681Z,11.20
2023-03-02T09:14:11.128Z,11.30
2023-03-02T09:16:39.765Z,10.40
2023-03-02T09:19:08.202Z,9.40
2023-03-02T09:21:38.448Z,9.80
2023-03-02T09:24:06.870Z,9.60
2023-03-02T09:26:36.348Z,10.80
2023-03-02T09:29:06.939Z,16.80
2023-03-02T09:31:36.491Z,8.20
2023-03-02T09:34:05.904Z,8.80
2023-03-02T09:36:34.743Z,8.10
2023-03-02T09:39:08.677Z,7.10
2023-03-02T09:41:57.610Z,8.00
2023-03-02T09:45:03.532Z,6.70
2023-03-02T09:48:10.376Z,7.30
2023-03-02T09:53:11.864Z,6.10
2023-03-02T09:55:40.103Z,6.60
2023-03-02T09:58:15.952Z,6.30
2023-03-02T10:00:45.660Z,6.50
2023-03-02T10:03:18.585Z,6.30
2023-03-02T10:05:49.451Z,6.10
2023-03-02T10:08:21.896Z,5.90
2023-03-02T10:11:11.796Z,5.60
2023-03-02T10:13:54.837Z,5.30
2023-03-02T10:16:45.920Z,6.10
2023-03-02T10:19:29.904Z,5.30
2023-03-02T10:22:15.843Z,4.90
2023-03-02T10:25:08.584Z,4.30
2023-03-02T10:27:44.501Z,3.90
2023-03-02T10:30:34.063Z,4.90
2023-03-02T10:33:09.906Z,4.60
2023-03-02T10:35:45.084Z,5.00
2023-03-02T10:38:18.069Z,4.50
2023-03-02T10:40:46.188Z,4.60
2023-03-02T10:43:20.221Z,4.60
2023-03-02T10:46:02.611Z,4.70
2023-03-02T10:48:31.105Z,4.20
2023-03-02T10:51:00.652Z,5.50
2023-03-02T10:53:29.313Z,4.20
2023-03-02T10:55:57.526Z,3.80
2023-03-02T10:58:32.148Z,4.00
2023-03-02T11:01:03.830Z,3.50
2023-03-02T11:03:33.680Z,4.30
2023-03-02T11:06:20.414Z,3.90
2023-03-02T11:09:02.551Z,3.90
2023-03-02T11:11:31.774Z,4.70
2023-03-02T11:14:15.957Z,5.70
2023-03-02T11:16:44.680Z,3.50
2023-03-02T11:19:38.078Z,3.70
2023-03-02T11:22:23.713Z,3.80
2023-03-02T11:24:56.354Z,3.20
2023-03-02T11:27:30.017Z,3.60
2023-03-02T11:30:02.963Z,4.30
2023-03-02T11:35:29.520Z,3.60
2023-03-02T11:38:10.499Z,3.00
2023-03-02T11:40:50.000Z,3.40
2023-03-02T11:43:18.134Z,3.50
2023-03-02T11:45:51.976Z,4.20
2023-03-02T11:48:31.000Z,4.30
2023-03-02T11:51:06.707Z,4.30
2023-03-02T11:53:43.830Z,3.80
2023-03-02T11:56:12.883Z,4.20
2023-03-02T11:58:44.183Z,3.80
2023-03-02T12:01:19.394Z,3.60
2023-03-02T12:03:48.134Z,4.30
2023-03-02T12:06:22.615Z,3.10
2023-03-02T12:08:55.726Z,5.70
2023-03-02T12:11:23.875Z,4.10
2023-03-02T12:13:54.781Z,8.40
2023-03-02T12:16:37.309Z,3.70
2023-03-02T12:19:28.200Z,3.60
2023-03-02T12:21:58.069Z,4.20
2023-03-02T12:24:32.234Z,3.80
2023-03-02T12:27:16.704Z,3.50
2023-03-02T12:30:18.856Z,3.80
2023-03-02T12:33:10.426Z,3.60
2023-03-02T12:35:39.380Z,3.80
2023-03-02T12:38:31.233Z,2.90
2023-03-02T12:41:26.291Z,3.00
2023-03-02T12:44:23.895Z,3.40
2023-03-02T12:46:52.190Z,3.40
2023-03-02T12:49:50.360Z,3.80
2023-03-02T12:52:28.802Z,3.20
2023-03-02T12:55:20.310Z,4.30
2023-03-02T12:57:50.773Z,3.30
2023-03-02T13:00:23.154Z,3.90
2023-03-02T13:02:54.873Z,4.10
2023-03-02T13:05:26.927Z,3.60
2023-03-02T13:08:09.537Z,3.60
2023-03-02T13:11:04.318Z,3.30
2023-03-02T13:13:32.702Z,3.20
2023-03-02T13:16:04.725Z,4.00
2023-03-02T13:18:36.805Z,3.20
2023-03-02T13:21:13.182Z,3.50
2023-03-02T13:23:50.381Z,3.40
2023-03-02T13:26:36.746Z,3.50
2023-03-02T13:29:31.974Z,4.00
2023-03-02T13:32:43.501Z,3.60
2023-03-02T13:35:26.541Z,3.20
2023-03-02T13:40:30.008Z,2.80
2023-03-02T13:45:32.145Z,4.60
2023-03-02T13:48:15.453Z,2.60
2023-03-02T13:53:20.657Z,3.20
2023-03-02T13:55:49.263Z,3.10
2023-03-02T13:58:19.510Z,22.90
2023-03-02T14:00:48.385Z,4.30
2023-03-02T14:03:26.799Z,6.80
2023-03-02T14:05:56.600Z,9.80
2023-03-02T14:08:25.229Z,3.70
2023-03-02T14:10:57.563Z,3.10
2023-03-02T14:13:37.972Z,10.30
2023-03-02T14:16:06.968Z,3.20
2023-03-02T14:18:35.007Z,4.20
2023-03-02T14:21:03.606Z,8.00
2023-03-02T14:23:32.132Z,10.40
2023-03-02T14:26:00.337Z,8.50
2023-03-02T14:28:33.047Z,4.50
2023-03-02T14:31:01.430Z,3.80
2023-03-02T14:33:29.570Z,5.00
2023-03-02T14:35:58.882Z,3.80
2023-03-02T14:38:27.936Z,4.00
2023-03-02T14:40:57.168Z,3.40
2023-03-02T14:43:25.450Z,4.30
2023-03-02T14:45:53.716Z,4.80
2023-03-02T14:48:22.092Z,5.70
2023-03-02T14:50:51.743Z,4.80
2023-03-02T14:53:28.125Z,7.60
2023-03-02T14:55:56.445Z,3.20
2023-03-02T14:58:32.832Z,2.90
2023-03-02T15:01:01.245Z,3.30
2023-03-02T15:03:29.620Z,5.20
2023-03-02T15:06:02.160Z,4.10
2023-03-02T15:08:30.627Z,3.20
2023-03-02T15:10:59.026Z,3.30
2023-03-02T15:13:27.350Z,2.90
2023-03-02T15:15:56.702Z,3.30
2023-03-02T15:18:24.867Z,4.60
2023-03-02T15:20:52.962Z,6.50
2023-03-02T15:23:21.311Z,9.30
2023-03-02T15:25:49.403Z,4.50
2023-03-02T15:28:17.515Z,7.70
2023-03-02T15:30:46.925Z,62.10
2023-03-02T15:33:15.040Z,26.40
2023-03-02T15:35:44.639Z,137.80
2023-03-02T15:38:13.086Z,91.70
2023-03-02T15:40:41.189Z,46.40
2023-03-02T15:43:09.609Z,20.40
2023-03-02T15:45:37.959Z,6.50
2023-03-02T15:48:06.624Z,5.70
2023-03-02T15:50:34.798Z,5.30
2023-03-02T15:53:02.881Z,5.10
2023-03-02T15:55:31.087Z,5.50
2023-03-02T15:58:00.114Z,6.30
2023-03-02T16:00:28.235Z,5.80
2023-03-02T16:02:56.471Z,6.60
2023-03-02T16:05:24.649Z,7.00
2023-03-02T16:07:52.775Z,8.70
2023-03-02T16:10:21.280Z,7.30
2023-03-02T16:12:49.458Z,7.90
2023-03-02T16:15:17.955Z,7.40
2023-03-02T16:17:46.225Z,10.00
2023-03-02T16:20:14.328Z,9.40
2023-03-02T16:22:42.691Z,16.30
2023-03-02T16:25:11.518Z,11.80
2023-03-02T16:27:39.687Z,12.10
2023-03-02T16:30:09.398Z,12.00
2023-03-02T16:32:38.214Z,9.20
2023-03-02T16:35:09.202Z,17.40
2023-03-02T16:37:37.429Z,13.60
2023-03-02T16:40:06.159Z,16.50
2023-03-02T16:42:34.411Z,9.30
2023-03-02T16:45:02.718Z,8.50
2023-03-02T16:47:30.835Z,16.30
2023-03-02T16:49:59.039Z,18.00
2023-03-02T16:52:27.205Z,12.90
2023-03-02T16:54:55.451Z,12.50
2023-03-02T16:57:23.666Z,18.60
2023-03-02T16:59:52.264Z,20.00
2023-03-02T17:02:20.430Z,26.60
2023-03-02T17:04:48.568Z,29.20
2023-03-02T17:07:16.768Z,32.10
2023-03-02T17:09:44.916Z,33.30
2023-03-02T17:12:13.062Z,34.20
2023-03-02T17:14:41.285Z,31.70
2023-03-02T17:17:09.913Z,35.60
2023-03-02T17:19:38.562Z,35.10
2023-03-02T17:22:06.777Z,34.60
2023-03-02T17:24:35.225Z,36.60
2023-03-02T17:27:05.445Z,36.20
2023-03-02T17:29:36.925Z,31.20
2023-03-02T17:32:05.310Z,33.30
2023-03-02T17:34:33.922Z,39.80
2023-03-02T17:37:02.237Z,33.20
2023-03-02T17:39:30.406Z,32.30
2023-03-02T17:41:58.732Z,34.00
2023-03-02T17:44:27.985Z,34.40
2023-03-02T17:46:56.163Z,37.70
2023-03-02T17:49:24.439Z,49.20
2023-03-02T17:51:52.639Z,38.50
2023-03-02T17:54:20.705Z,34.50
2023-03-02T17:56:48.966Z,34.80
2023-03-02T17:59:17.356Z,31.40
2023-03-02T18:01:45.585Z,29.20
2023-03-02T18:04:14.027Z,30.40
2023-03-02T18:06:42.146Z,31.70
2023-03-02T18:09:10.388Z,30.50
2023-03-02T18:11:41.559Z,39.10
2023-03-02T18:14:14.718Z,38.50
2023-03-02T18:19:10.921Z,33.30
2023-03-02T18:21:41.902Z,46.60
2023-03-02T18:24:10.330Z,34.30
2023-03-02T18:26:38.640Z,33.80
2023-03-02T18:29:07.599Z,29.90
2023-03-02T18:31:35.751Z,29.70
2023-03-02T18:34:04.037Z,29.20
2023-03-02T18:36:32.283Z,28.80
2023-03-02T18:39:00.915Z,29.10
2023-03-02T18:41:30.422Z,27.80
2023-03-02T18:44:01.435Z,25.00
2023-03-02T18:46:31.520Z,25.80
2023-03-02T18:49:01.206Z,26.70
2023-03-02T18:51:29.532Z,22.80
2023-03-02T18:53:57.734Z,19.10
2023-03-02T18:56:26.521Z,25.30
2023-03-02T18:58:54.727Z,39.60
2023-03-02T19:01:23.474Z,24.70
2023-03-02T19:03:53.597Z,27.70
2023-03-02T19:06:23.164Z,24.90
2023-03-02T19:08:51.289Z,25.40
2023-03-02T19:11:19.561Z,22.30
2023-03-02T19:13:47.757Z,24.10
2023-03-02T19:16:17.850Z,23.20
2023-03-02T19:18:46.966Z,23.00
2023-03-02T19:21:15.440Z,21.90
2023-03-02T19:23:45.558Z,21.50
2023-03-02T19:26:14.754Z,25.90
2023-03-02T19:28:42.922Z,23.80
2023-03-02T19:31:11.570Z,23.30
2023-03-02T19:33:41.075Z,25.60
2023-03-02T19:36:10.322Z,30.60
2023-03-02T19:38:41.646Z,27.40
2023-03-02T19:41:13.435Z,27.60
2023-03-02T19:43:42.884Z,25.00
2023-03-02T19:46:11.138Z,23.90
2023-03-02T19:48:40.367Z,25.40
2023-03-02T19:51:09.493Z,22.80
2023-03-02T19:53:39.336Z,18.50
2023-03-02T19:56:12.978Z,15.30
2023-03-02T19:58:47.823Z,25.50
2023-03-02T20:01:21.913Z,24.90
2023-03-02T20:03:55.606Z,18.60
2023-03-02T20:06:31.331Z,16.90
2023-03-02T20:09:02.612Z,21.10
2023-03-02T20:11:31.512Z,28.80
2023-03-02T20:14:02.667Z,26.10
2023-03-02T20:16:36.595Z,28.80
2023-03-02T20:19:05.776Z,28.00
2023-03-02T20:21:34.830Z,26.30
2023-03-02T20:24:03.245Z,24.30
2023-03-02T20:26:31.878Z,25.10
2023-03-02T20:29:02.330Z,23.70
2023-03-02T20:31:33.328Z,23.30
2023-03-02T20:34:04.230Z,22.90
2023-03-02T20:36:34.943Z,20.90
2023-03-02T20:39:30.894Z,16.90
2023-03-02T20:42:00.260Z,18.40
2023-03-02T20:44:31.163Z,19.50
2023-03-02T20:47:04.683Z,18.60
2023-03-02T20:49:33.157Z,18.70
2023-03-02T20:52:02.360Z,21.90
2023-03-02T20:54:35.268Z,20.40
2023-03-02T20:57:05.534Z,20.50
2023-03-02T20:59:33.833Z,18.20
2023-03-02T21:02:01.961Z,20.80
2023-03-02T21:04:33.335Z,22.20
2023-03-02T21:07:01.527Z,25.20
2023-03-02T21:09:31.240Z,23.80
2023-03-02T21:11:59.435Z,25.60
2023-03-02T21:14:27.937Z,27.00
2023-03-02T21:16:58.653Z,27.40
2023-03-02T21:19:29.222Z,27.10
2023-03-02T21:21:57.757Z,27.20
2023-03-02T21:24:26.272Z,23.20
2023-03-02T21:26:55.523Z,22.30
2023-03-02T21:29:26.803Z,20.90
2023-03-02T21:31:55.107Z,21.60
2023-03-02T21:34:23.424Z,20.30
2023-03-02T21:36:53.834Z,19.30
2023-03-02T21:39:23.795Z,16.90
2023-03-02T21:41:52.921Z,18.00
2023-03-02T21:44:21.451Z,17.40
2023-03-02T21:46:50.978Z,16.20
2023-03-02T21:49:21.419Z,16.60
2023-03-02T21:51:50.181Z,16.70
2023-03-02T21:54:18.384Z,16.50
2023-03-02T21:56:46.704Z,17.90
2023-03-02T21:59:14.955Z,15.80
2023-03-02T22:01:43.080Z,15.30
2023-03-02T22:04:11.550Z,15.00
2023-03-02T22:06:39.834Z,14.70
2023-03-02T22:09:08.000Z,14.80
2023-03-02T22:11:38.640Z,14.00
2023-03-02T22:14:16.225Z,14.10
2023-03-02T22:16:47.985Z,13.40
2023-03-02T22:19:28.556Z,12.80
2023-03-02T22:22:03.332Z,12.90
2023-03-02T22:24:33.167Z,12.30
2023-03-02T22:27:25.712Z,14.30
2023-03-02T22:29:57.900Z,10.80
2023-03-02T22:32:35.595Z,13.10
2023-03-02T22:35:14.911Z,13.30
2023-03-02T22:37:43.128Z,15.10
2023-03-02T22:40:18.198Z,14.10
2023-03-02T22:42:46.377Z,13.40
2023-03-02T22:45:17.755Z,15.00
2023-03-02T22:47:51.459Z,14.40
2023-03-02T22:50:27.195Z,13.00
2023-03-02T22:52:57.695Z,12.00
2023-03-02T22:55:37.262Z,11.20
2023-03-02T22:58:27.226Z,13.60
2023-03-02T23:00:56.679Z,15.70
2023-03-02T23:03:39.405Z,16.80
2023-03-02T23:06:24.603Z,16.60
2023-03-02T23:08:55.037Z,15.20
2023-03-02T23:11:24.833Z,12.90
2023-03-02T23:13:53.894Z,13.20
2023-03-02T23:16:24.959Z,11.30
2023-03-02T23:18:56.515Z,11.60
2023-03-02T23:21:28.551Z,12.10
2023-03-02T23:23:56.869Z,12.10
2023-03-02T23:26:25.039Z,15.30
2023-03-02T23:28:53.462Z,13.60
2023-03-02T23:31:21.763Z,14.20
2023-03-02T23:33:49.980Z,14.20
2023-03-02T23:36:21.068Z,14.80
2023-03-02T23:38:51.040Z,13.70
2023-03-02T23:41:19.457Z,13.00
2023-03-02T23:43:47.684Z,14.00
2023-03-02T23:46:16.028Z,13.90
2023-03-02T23:48:44.529Z,13.60
2023-03-02T23:51:12.902Z,14.20
2023-03-02T23:53:41.028Z,13.10
2023-03-02T23:56:09.132Z,12.90
2023-03-02T23:58:37.959Z,13.60
